CheckWX is a tool to help pilots better visualize weather data.  It is not intended as a substitute for an official pre-flight weather briefing.

20:22:26 UTC

KMMU METAR
Morristown Municipal Airport
Morristown, New Jersey, USA
Current

37 mins ago

KMMU 091945Z 20004KT 3SM RA OVC006 09/09 A2992
Observed
Dec-9 @ 19:45 UTC
Wind
  • 200° at 4 KTS
Visibility
3 SM
Flight Rules
IFR
Conditions
Rain
Cloud Levels
  • Overcast at 600' AGL
Temperature
C / 48°F
Dewpoint
C / 48°F
Humidity
100%
Altimeter
29.92" Hg
Pressure
1013.22 hPa
Previous

2 hours ago

KMMU 091845Z 00000KT 2SM RA OVC006 08/08 A2996
Observed
Dec-9 @ 18:45 UTC
Visibility
2 SM
Flight Rules
IFR
Conditions
Rain
Cloud Levels
  • Overcast at 600' AGL
Temperature
C / 46°F
Dewpoint
C / 46°F
Humidity
100%
Altimeter
29.96" Hg
Pressure
1014.52 hPa
Previous

3 hours ago

KMMU 091745Z 00000KT 1SM BR OVC003 07/07 A2999
Observed
Dec-9 @ 17:45 UTC
Visibility
1 SM
Flight Rules
LIFR
Conditions
Mist
Cloud Levels
  • Overcast at 300' AGL
Temperature
C / 45°F
Dewpoint
C / 45°F
Humidity
100%
Altimeter
29.99" Hg
Pressure
1015.62 hPa